Thorco Attraction — V2BS1 — position and weather

sailwx.info

Track history (hours):
 
Tides and Currents Weather Stations Pressure Air Temp Water Temp Dewpoint Dewpoint Depression Visibility Wind Speed Wind Dir Waves Ship Positions

Thorco Attraction

Last reported at 2014-Jul-29 02:06 UTC. Time now 2014-Jul-29 23:02 UTC.
Position N 37°13' E 004°31'.

Length 132 m; draft 6.7 m.

Type: Cargo ship. MMSI: 304908000.

Date/timePositionNaut miles runAvg speedWind from/ knotsBaromVisibWave heightAir tempDewpointWater temp
2014-Jul-29 02:06N 37°13' E 004°31'712.1
2014-Jul-29 01:33N 37°11' E 004°23'1212.0
2014-Jul-29 00:33N 37°09' E 004°08'1212.4
2014-Jul-28 23:33N 37°07' E 003°53'1212.3
2014-Jul-28 22:33N 37°05' E 003°38'1211.9
2014-Jul-28 21:33N 37°04' E 003°23'1211.8
2014-Jul-28 20:33N 37°02' E 003°08'1312.4
2014-Jul-28 19:33N 37°00' E 002°53'1211.9
2014-Jul-28 18:33N 36°59' E 002°38'4611.6
2014-Jul-28 14:32N 36°52' E 001°40'  
2014-Jul-26 04:34N 36°04' W 007°13'1611.3
2014-Jul-26 03:11N 36°09' W 007°31'811.5
2014-Jul-26 02:29N 36°11' W 007°41'2411.2
2014-Jul-26 00:23N 36°17' W 008°09'1411.3
2014-Jul-25 23:11N 36°21' W 008°25'1011.5
2014-Jul-25 22:19N 36°23' W 008°37'911.6
2014-Jul-25 21:32N 36°25' W 008°48'1111.7
2014-Jul-25 20:33N 36°28' W 009°02'1511.4
2014-Jul-25 19:17N 36°34' W 009°18'1112.0
2014-Jul-25 18:24N 36°42' W 009°28'14111.9
2014-Jul-25 06:29N 38°60' W 010°06'6 5.8
2014-Jul-25 05:32N 39°05' W 010°07'56711.6
2014-Jul-23 04:34N 48°09' W 006°24'1312.6
2014-Jul-23 03:33N 48°20' W 006°15'5611.1
2014-Jul-22 22:33N 49°04' W 005°23'24112.1
2014-Jul-22 02:33N 50°34' E 000°24'1212.3
2014-Jul-22 01:33N 50°40' E 000°41'1312.8
2014-Jul-22 00:33N 50°48' E 000°57'1312.6
2014-Jul-21 23:33N 50°56' E 001°12'1211.9
2014-Jul-21 22:33N 51°03' E 001°26'1111.0
2014-Jul-21 21:33N 51°10' E 001°40'1010.4
2014-Jul-21 20:33N 51°18' E 001°51'310.9
2014-Jul-21 20:18N 51°21' E 001°53'811.2
2014-Jul-21 19:33N 51°28' E 001°59'1211.9
2014-Jul-21 18:33N 51°37' E 002°12'1412.2
2014-Jul-21 17:23N 51°48' E 002°28'4012.8
2014-Jul-21 14:13N 52°19' E 003°09'6811.2
2014-Jul-21 08:08N 53°10' E 004°24'2212.0
2014-Jul-21 06:16N 53°29' E 004°43'812.0
2014-Jul-21 05:33N 53°33' E 004°56'1211.8
2014-Jul-21 04:33N 53°37' E 005°14'1111.0
2014-Jul-21 03:33N 53°40' E 005°32'1010.4
2014-Jul-21 02:33N 53°44' E 005°49'1110.5
2014-Jul-21 01:30N 53°47' E 006°06'1310.8
2014-Jul-21 00:17N 53°51' E 006°28'3611.9
2014-Jul-20 21:13N 53°60' E 007°28'812.6
2014-Jul-20 20:33N 54°02' E 007°42'1212.3
2014-Jul-20 19:33N 54°01' E 008°03'1211.8
2014-Jul-20 18:33N 53°60' E 008°23'1110.9
2014-Jul-20 17:34N 53°56' E 008°40'9 8.7
2014-Jul-20 16:33N 53°50' E 008°52'10 9.4
2014-Jul-20 15:31N 53°53' E 009°08'1 0.8
2014-Jul-20 14:32N 53°54' E 009°09'1 1.3
2014-Jul-20 13:33N 53°54' E 009°10'5 4.8
2014-Jul-20 12:32N 53°58' E 009°16'9 8.1
2014-Jul-20 11:29N 54°06' E 009°20'5 4.7
2014-Jul-20 10:31N 54°10' E 009°25'29 5.2
2014-Jul-20 05:03N 54°22' E 010°09'1 2.3
2014-Jul-20 04:32N 54°23' E 010°11'9 8.9
2014-Jul-20 03:33N 54°30' E 010°18'9 9.5
2014-Jul-20 02:33N 54°34' E 010°33'1010.2
2014-Jul-20 01:33N 54°36' E 010°50'1110.9
2014-Jul-20 00:33N 54°37' E 011°09'1110.8
2014-Jul-19 23:33N 54°32' E 011°26'1110.5
2014-Jul-19 22:33N 54°28' E 011°42'1110.7
2014-Jul-19 21:33N 54°26' E 012°01'9 9.1
2014-Jul-19 20:33N 54°32' E 012°13'1010.2
2014-Jul-19 19:33N 54°40' E 012°24'1110.6
2014-Jul-19 18:33N 54°46' E 012°39'1010.1
2014-Jul-19 17:33N 54°48' E 012°56'1110.7
2014-Jul-19 16:33N 54°47' E 013°15'1111.0
2014-Jul-19 15:33N 54°47' E 013°34'1110.6
2014-Jul-19 14:33N 54°44' E 013°51'1110.7
2014-Jul-19 13:33N 54°41' E 014°09'1110.8
2014-Jul-19 12:33N 54°38' E 014°27'1111.0
2014-Jul-19 11:33N 54°40' E 014°46'1410.8
2014-Jul-19 10:17N 54°42' E 015°09'810.8
2014-Jul-19 09:33N 54°43' E 015°23'1110.7
2014-Jul-19 08:33N 54°44' E 015°41'1111.0
2014-Jul-19 07:33N 54°46' E 016°00'8 8.0
2014-Jul-19 06:33N 54°47' E 016°14'1212.0
2014-Jul-19 05:33N 54°49' E 016°34'1212.3
2014-Jul-19 04:33N 54°51' E 016°55'1212.4
2014-Jul-19 03:33N 54°54' E 017°16'1212.1
2014-Jul-19 02:33N 54°55' E 017°37'  
Track history (hours):
 
Tides and Currents Weather Stations Pressure Air Temp Water Temp Dewpoint Dewpoint Depression Visibility Wind Speed Wind Dir Waves Ship Positions

Thorco Attraction

Last reported at 2014-Jul-29 02:06 UTC. Time now 2014-Jul-29 23:02 UTC.
Position N 37°13' E 004°31'.

Length 132 m; draft 6.7 m.

Type: Cargo ship. MMSI: 304908000.

Date/timePositionNaut miles runAvg speedWind from/ knotsBaromVisibWave heightAir tempDewpointWater temp
2014-Jul-29 02:06N 37°13' E 004°31'712.1
2014-Jul-29 01:33N 37°11' E 004°23'1212.0
2014-Jul-29 00:33N 37°09' E 004°08'1212.4
2014-Jul-28 23:33N 37°07' E 003°53'1212.3
2014-Jul-28 22:33N 37°05' E 003°38'1211.9
2014-Jul-28 21:33N 37°04' E 003°23'1211.8
2014-Jul-28 20:33N 37°02' E 003°08'1312.4
2014-Jul-28 19:33N 37°00' E 002°53'1211.9
2014-Jul-28 18:33N 36°59' E 002°38'4611.6
2014-Jul-28 14:32N 36°52' E 001°40'  
2014-Jul-26 04:34N 36°04' W 007°13'1611.3
2014-Jul-26 03:11N 36°09' W 007°31'811.5
2014-Jul-26 02:29N 36°11' W 007°41'2411.2
2014-Jul-26 00:23N 36°17' W 008°09'1411.3
2014-Jul-25 23:11N 36°21' W 008°25'1011.5
2014-Jul-25 22:19N 36°23' W 008°37'911.6
2014-Jul-25 21:32N 36°25' W 008°48'1111.7
2014-Jul-25 20:33N 36°28' W 009°02'1511.4
2014-Jul-25 19:17N 36°34' W 009°18'1112.0
2014-Jul-25 18:24N 36°42' W 009°28'14111.9
2014-Jul-25 06:29N 38°60' W 010°06'6 5.8
2014-Jul-25 05:32N 39°05' W 010°07'56711.6
2014-Jul-23 04:34N 48°09' W 006°24'1312.6
2014-Jul-23 03:33N 48°20' W 006°15'5611.1
2014-Jul-22 22:33N 49°04' W 005°23'24112.1
2014-Jul-22 02:33N 50°34' E 000°24'1212.3
2014-Jul-22 01:33N 50°40' E 000°41'1312.8
2014-Jul-22 00:33N 50°48' E 000°57'1312.6
2014-Jul-21 23:33N 50°56' E 001°12'1211.9
2014-Jul-21 22:33N 51°03' E 001°26'1111.0
2014-Jul-21 21:33N 51°10' E 001°40'1010.4
2014-Jul-21 20:33N 51°18' E 001°51'310.9
2014-Jul-21 20:18N 51°21' E 001°53'811.2
2014-Jul-21 19:33N 51°28' E 001°59'1211.9
2014-Jul-21 18:33N 51°37' E 002°12'1412.2
2014-Jul-21 17:23N 51°48' E 002°28'4012.8
2014-Jul-21 14:13N 52°19' E 003°09'6811.2
2014-Jul-21 08:08N 53°10' E 004°24'2212.0
2014-Jul-21 06:16N 53°29' E 004°43'812.0
2014-Jul-21 05:33N 53°33' E 004°56'1211.8
2014-Jul-21 04:33N 53°37' E 005°14'1111.0
2014-Jul-21 03:33N 53°40' E 005°32'1010.4
2014-Jul-21 02:33N 53°44' E 005°49'1110.5
2014-Jul-21 01:30N 53°47' E 006°06'1310.8
2014-Jul-21 00:17N 53°51' E 006°28'3611.9
2014-Jul-20 21:13N 53°60' E 007°28'812.6
2014-Jul-20 20:33N 54°02' E 007°42'1212.3
2014-Jul-20 19:33N 54°01' E 008°03'1211.8
2014-Jul-20 18:33N 53°60' E 008°23'1110.9
2014-Jul-20 17:34N 53°56' E 008°40'9 8.7
2014-Jul-20 16:33N 53°50' E 008°52'10 9.4
2014-Jul-20 15:31N 53°53' E 009°08'1 0.8
2014-Jul-20 14:32N 53°54' E 009°09'1 1.3
2014-Jul-20 13:33N 53°54' E 009°10'5 4.8
2014-Jul-20 12:32N 53°58' E 009°16'9 8.1
2014-Jul-20 11:29N 54°06' E 009°20'5 4.7
2014-Jul-20 10:31N 54°10' E 009°25'29 5.2
2014-Jul-20 05:03N 54°22' E 010°09'1 2.3
2014-Jul-20 04:32N 54°23' E 010°11'9 8.9
2014-Jul-20 03:33N 54°30' E 010°18'9 9.5
2014-Jul-20 02:33N 54°34' E 010°33'1010.2
2014-Jul-20 01:33N 54°36' E 010°50'1110.9
2014-Jul-20 00:33N 54°37' E 011°09'1110.8
2014-Jul-19 23:33N 54°32' E 011°26'1110.5
2014-Jul-19 22:33N 54°28' E 011°42'1110.7
2014-Jul-19 21:33N 54°26' E 012°01'9 9.1
2014-Jul-19 20:33N 54°32' E 012°13'1010.2
2014-Jul-19 19:33N 54°40' E 012°24'1110.6
2014-Jul-19 18:33N 54°46' E 012°39'1010.1
2014-Jul-19 17:33N 54°48' E 012°56'1110.7
2014-Jul-19 16:33N 54°47' E 013°15'1111.0
2014-Jul-19 15:33N 54°47' E 013°34'1110.6
2014-Jul-19 14:33N 54°44' E 013°51'1110.7
2014-Jul-19 13:33N 54°41' E 014°09'1110.8
2014-Jul-19 12:33N 54°38' E 014°27'1111.0
2014-Jul-19 11:33N 54°40' E 014°46'1410.8
2014-Jul-19 10:17N 54°42' E 015°09'810.8
2014-Jul-19 09:33N 54°43' E 015°23'1110.7
2014-Jul-19 08:33N 54°44' E 015°41'1111.0
2014-Jul-19 07:33N 54°46' E 016°00'8 8.0
2014-Jul-19 06:33N 54°47' E 016°14'1212.0
2014-Jul-19 05:33N 54°49' E 016°34'1212.3
2014-Jul-19 04:33N 54°51' E 016°55'1212.4
2014-Jul-19 03:33N 54°54' E 017°16'1212.1
2014-Jul-19 02:33N 54°55' E 017°37'  

Dump ship's entire track history